CheckWX is a tool to help pilots better visualize weather data.  It is not intended as a substitute for an official pre-flight weather briefing.

09:43:05 UTC

KPGD METAR
Punta Gorda Airport
Punta Gorda, Florida, USA
Current

50 mins ago

KPGD 200853Z AUTO 12007KT 10SM FEW047 OVC060 22/20 A3008 RMK AO2 SLP188 T02170200 58015
Observed
Feb-20 @ 08:53 UTC
Wind
  • 120° at 7 KTS
Visibility
16,093 meters
Flight Rules
VFR
Cloud Levels
  • Few at 4,700' AGL
  • Overcast at 6,000' AGL
Temperature
22°C / 72°F
Dewpoint
20°C / 68°F
Humidity
88%
Altimeter
30.08" Hg
Pressure
1018.8 hPa
Previous

2 hours ago

KPGD 200753Z AUTO 10008KT 10SM OVC060 21/19 A3010 RMK AO2 SLP192 T02110189
Observed
Feb-20 @ 07:53 UTC
Wind
  • 100° at 8 KTS
Visibility
16,093 meters
Flight Rules
VFR
Cloud Levels
  • Overcast at 6,000' AGL
Temperature
21°C / 70°F
Dewpoint
19°C / 66°F
Humidity
88%
Altimeter
30.1" Hg
Pressure
1019.2 hPa
Previous

3 hours ago

KPGD 200653Z AUTO 10008KT 10SM FEW080 21/19 A3012 RMK AO2 SLP199 T02060189
Observed
Feb-20 @ 06:53 UTC
Wind
  • 100° at 8 KTS
Visibility
16,093 meters
Flight Rules
VFR
Cloud Levels
  • Few at 8,000' AGL
Temperature
21°C / 70°F
Dewpoint
19°C / 66°F
Humidity
88%
Altimeter
30.12" Hg
Pressure
1019.9 hPa